createdAt,value
2017-11-08T21:21:57.844Z,7.70
2017-11-08T21:24:24.777Z,7.80
2017-11-08T21:26:50.960Z,7.80
2017-11-08T21:29:17.146Z,7.80
2017-11-08T21:31:43.361Z,7.90
2017-11-08T21:34:10.271Z,7.90
2017-11-08T21:36:36.501Z,7.90
2017-11-08T21:39:02.696Z,7.90
2017-11-08T21:41:29.650Z,7.90
2017-11-08T21:43:56.120Z,7.90
2017-11-08T21:46:22.335Z,7.90
2017-11-08T21:48:50.680Z,8.00
2017-11-08T21:51:18.273Z,8.00
2017-11-08T21:53:45.840Z,8.10
2017-11-08T21:56:13.459Z,8.30
2017-11-08T21:58:41.788Z,8.40
2017-11-08T22:01:09.377Z,8.40
2017-11-08T22:03:36.956Z,8.40
2017-11-08T22:06:04.558Z,8.40
2017-11-08T22:08:32.141Z,8.40
2017-11-08T22:10:59.733Z,8.40
2017-11-08T22:13:28.068Z,8.50
2017-11-08T22:15:55.651Z,8.50
2017-11-08T22:18:23.225Z,8.40
2017-11-08T22:20:50.846Z,8.40
2017-11-08T22:23:18.427Z,8.40
2017-11-08T22:25:46.033Z,8.40
2017-11-08T22:28:13.609Z,8.30
2017-11-08T22:30:41.193Z,8.30
2017-11-08T22:33:08.757Z,8.30
2017-11-08T22:35:36.344Z,8.20
2017-11-08T22:38:03.913Z,8.20
2017-11-08T22:40:31.505Z,8.30
2017-11-08T22:42:59.840Z,8.20
2017-11-08T22:45:27.422Z,8.20
2017-11-08T22:48:03.004Z,8.10
2017-11-08T22:50:30.579Z,8.00
2017-11-08T22:52:58.170Z,8.00
2017-11-08T22:55:25.769Z,7.90
2017-11-08T22:57:53.422Z,7.90
2017-11-08T23:00:21.564Z,8.00
2017-11-08T23:02:49.162Z,8.00
2017-11-08T23:05:16.733Z,8.10
2017-11-08T23:07:45.088Z,8.10
2017-11-08T23:10:13.426Z,8.20
2017-11-08T23:12:41.032Z,8.10
2017-11-08T23:15:08.611Z,8.00
2017-11-08T23:17:36.214Z,8.00
2017-11-08T23:20:04.563Z,8.10
2017-11-08T23:22:32.163Z,8.10
2017-11-08T23:24:59.746Z,8.20
2017-11-08T23:27:27.513Z,8.20
2017-11-08T23:29:55.128Z,8.10
2017-11-08T23:32:22.726Z,8.00
2017-11-08T23:34:50.379Z,8.10
2017-11-08T23:37:17.969Z,8.00
2017-11-08T23:39:45.534Z,7.80
2017-11-08T23:42:13.149Z,7.50
2017-11-08T23:44:40.727Z,7.40
2017-11-08T23:47:08.425Z,7.50
2017-11-08T23:49:36.776Z,7.70
2017-11-08T23:52:04.356Z,7.70
2017-11-08T23:54:34.796Z,7.80
2017-11-08T23:57:02.361Z,7.80
2017-11-08T23:59:29.966Z,7.80
